Strona główna
METAR-TAF:

METAR-TAF

Lotnisko :

Brookhaven Airport

Shirley, Nowy Jork, Stany Zjednoczone

Szerokość geograficzna: 40-49-18N, Długość geograficzna: 072-52-08W, wysokość: 25 m

Aktualna obserwacja pogody

Raport powstał 21 minut temu, godzina 21:56 UTC
Wiatr 3 kt od południowo-południowy zachód
Temperatura 3°C
Wilgotność 65%
Ciśnienie 1031 hPa
Widzialność: 16.1 km
bezchmurnie

METAR: KHWV 082156Z AUTO 20003KT 10SM CLR 03/M03 A3046 RMK AO2 SLP314 T00331028 TSNO

czas: 17:17 (22:17 UTC)


TAF: brakujący

Obserwacja i prognoza pogody dla ponad 4000 lotnisk (raport METAR i TAF).

Dostępne stacje oznaczono żółtymi i czerwonymi punktami na mapie.

Najedź kursorem aby zobaczyć nazwę stacji.

Kliknij aby zobaczyć obserwacje i prognozy pogody.

Aby zmienić mapę: kliknij na zielony przycisk z czarnym krzyżykiem, aby powiększyć; na zielony przycisk z myślnikiem, aby pomniejszyć; na zielone strzałki, aby przejść do map sąsiednich.


METAR-TAF: